Index of /results/ignatenkobrain/

NameLast ModifiedSizeType
../  Directory
python-pywt/2017-Feb-28 03:02:50-- Directory
kernel/2017-Feb-28 03:02:50-- Directory
gimp-plugins/2017-Feb-28 03:02:50-- Directory
DiffusionKurtosisFit/2017-Feb-28 03:02:50-- Directory
laby/2017-Feb-28 03:02:50-- Directory
libminc/2017-Feb-28 03:02:50-- Directory
debuginfo-kernel-ppc64le/2017-Mar-09 08:03:49-- Directory
python-pyxid/2017-Feb-28 03:02:50-- Directory
sigal/2017-Feb-28 03:02:50-- Directory
owncloud-news/2017-Feb-28 03:02:50-- Directory
test/2017-Jun-14 06:06:33-- Directory
isis/2017-Feb-28 03:02:50-- Directory
pseudo/2017-Feb-28 03:02:50-- Directory
meson-el7/2016-Dec-03 21:12:43-- Directory
itop-itsm/2017-Feb-28 03:02:50-- Directory
matrix/2016-Dec-19 00:12:22-- Directory
libjson-rpc-cpp/2017-Feb-28 03:02:50-- Directory
gnome-news/2017-Feb-28 03:02:50-- Directory
KVMGT/2017-Feb-28 03:02:50-- Directory
foo/2016-May-18 18:05:26-- Directory
vim/2017-Feb-28 03:02:50-- Directory
taiga/2017-Feb-28 03:02:50-- Directory
wine-d3d/2017-Feb-28 03:02:50-- Directory
gnome-keysign/2017-Feb-28 03:02:50-- Directory
ocltoys/2017-Feb-28 03:02:50-- Directory
connectome-workbench/2017-Feb-28 03:02:50-- Directory
screencloud/2017-Feb-28 03:02:50-- Directory
softflowd/2017-Feb-28 03:02:50-- Directory
pidgin/2017-Jan-09 17:01:32-- Directory
el7-minimal/2016-Nov-10 23:11:59-- Directory
rust-rich/2017-Feb-19 12:02:31-- Directory
fedora-minimal/2017-Mar-14 14:03:06-- Directory
itk-rebase/2016-Dec-16 16:12:22-- Directory
neovim/2017-Feb-28 03:02:50-- Directory
seafile/2017-Feb-28 03:02:50-- Directory
octave-metch/2017-Feb-28 03:02:50-- Directory
git-lfs/2017-Feb-28 03:02:50-- Directory
meson/2017-Feb-28 03:02:50-- Directory
jjb/2017-Feb-28 03:02:50-- Directory
python-nibabel/2017-Feb-28 03:02:50-- Directory
behave-enhanced/2017-Feb-28 03:02:50-- Directory
cutegram/2017-Feb-28 03:02:50-- Directory
teeworlds-SDL2/2017-Feb-28 03:02:50-- Directory
rpm-tests/2017-Feb-28 03:02:50-- Directory
rpm-gitoverlay/2017-Jul-21 20:07:07-- Directory
mesa/2017-Feb-28 03:02:50-- Directory
getdp/2017-Feb-28 03:02:50-- Directory
fuel-deps/2017-Feb-28 03:02:50-- Directory
pyopencl/2017-Feb-28 03:02:50-- Directory
gnome-2048/2017-Feb-28 03:02:50-- Directory
homu/2017-Feb-28 03:02:50-- Directory
gtg/2017-Feb-28 03:02:50-- Directory
tmp/2015-Apr-28 11:04:50-- Directory
minc-tools/2017-Feb-28 03:02:50-- Directory
tasksh/2017-Feb-28 03:02:50-- Directory
evolution-rss/2017-Feb-28 03:02:50-- Directory
gnome-calendar/2017-Feb-28 03:02:50-- Directory
freeminer/2017-Feb-28 03:02:50-- Directory
random/2017-Jan-02 12:01:22-- Directory
gitlab/2017-Feb-28 03:02:50-- Directory
stuntrally/2017-Feb-28 03:02:50-- Directory
neurofedora/2017-Feb-28 03:02:50-- Directory
gifticlib/2017-Feb-28 03:02:50-- Directory
octave-jsonlab/2017-Feb-28 03:02:50-- Directory
python-tabulate/2017-Feb-28 03:02:50-- Directory
Lighttpd Enhanced Directory Listing Script
Go to COPR frontend